createdAt,value
2023-07-02T00:00:32.623Z,0.00
2023-07-02T00:01:32.611Z,0.00
2023-07-02T00:02:32.575Z,0.00
2023-07-02T00:03:32.587Z,0.00
2023-07-02T00:04:32.556Z,0.00
2023-07-02T00:05:32.524Z,0.00
2023-07-02T00:06:32.506Z,0.00
2023-07-02T00:07:32.602Z,0.00
2023-07-02T00:08:32.494Z,0.00
2023-07-02T00:09:32.481Z,0.00
2023-07-02T00:10:32.574Z,0.00
2023-07-02T00:11:32.476Z,0.00
2023-07-02T00:12:32.455Z,0.00
2023-07-02T00:13:32.435Z,0.00
2023-07-02T00:14:32.453Z,0.00
2023-07-02T00:15:32.418Z,0.00
2023-07-02T00:16:32.433Z,0.00
2023-07-02T00:17:32.405Z,0.00
2023-07-02T00:18:32.378Z,0.00
2023-07-02T00:19:32.363Z,0.00
2023-07-02T00:20:32.374Z,0.00
2023-07-02T00:21:32.341Z,0.00
2023-07-02T00:22:32.332Z,0.00
2023-07-02T00:23:32.318Z,0.00
2023-07-02T00:24:32.304Z,0.00
2023-07-02T00:25:32.296Z,0.00
2023-07-02T00:26:32.280Z,0.00
2023-07-02T00:27:32.303Z,0.00
2023-07-02T00:28:32.263Z,0.00
2023-07-02T00:29:32.247Z,0.00
2023-07-02T00:30:32.278Z,0.00
2023-07-02T00:31:32.316Z,0.00
2023-07-02T00:32:32.244Z,0.00
2023-07-02T00:33:32.201Z,0.00
2023-07-02T00:34:32.190Z,0.00
2023-07-02T00:35:32.182Z,0.00
2023-07-02T00:36:32.225Z,0.00
2023-07-02T00:37:32.172Z,0.00
2023-07-02T00:38:32.144Z,0.00
2023-07-02T00:39:32.132Z,0.00
2023-07-02T00:40:32.125Z,0.00
2023-07-02T00:41:32.119Z,0.00
2023-07-02T00:42:32.107Z,0.00
2023-07-02T00:43:32.116Z,0.00
2023-07-02T00:44:32.077Z,0.00
2023-07-02T00:45:32.082Z,0.00
2023-07-02T00:46:32.103Z,0.00
2023-07-02T00:47:32.111Z,0.00
2023-07-02T00:48:32.060Z,0.00
2023-07-02T00:49:32.029Z,0.00
2023-07-02T00:50:32.019Z,0.00
2023-07-02T00:51:32.025Z,0.00
2023-07-02T00:52:32.020Z,0.00
2023-07-02T00:53:31.984Z,0.00
2023-07-02T00:54:31.966Z,0.00
2023-07-02T00:55:31.967Z,0.00
2023-07-02T00:56:31.949Z,0.00
2023-07-02T00:57:31.960Z,0.00
2023-07-02T00:58:31.923Z,0.00
2023-07-02T00:59:31.956Z,0.00
2023-07-02T01:00:31.914Z,0.00
2023-07-02T01:01:31.939Z,0.00
2023-07-02T01:02:31.906Z,0.00
2023-07-02T01:03:31.877Z,0.00
2023-07-02T01:04:31.965Z,0.00
2023-07-02T01:05:31.889Z,0.00
2023-07-02T01:06:31.836Z,0.00
2023-07-02T01:07:31.927Z,0.00
2023-07-02T01:08:31.816Z,0.00
2023-07-02T01:09:31.807Z,0.00
2023-07-02T01:10:31.795Z,0.00
2023-07-02T01:11:31.799Z,0.00
2023-07-02T01:12:31.772Z,0.00
2023-07-02T01:13:31.767Z,0.00
2023-07-02T01:14:31.769Z,0.00
2023-07-02T01:15:31.781Z,0.00
2023-07-02T01:16:31.800Z,0.00
2023-07-02T01:17:31.764Z,0.00
2023-07-02T01:18:31.707Z,0.00
2023-07-02T01:19:31.703Z,0.00
2023-07-02T01:20:31.688Z,0.00
2023-07-02T01:21:31.676Z,0.00
2023-07-02T01:22:31.664Z,0.00
2023-07-02T01:23:31.657Z,0.00
2023-07-02T01:24:31.640Z,0.00
2023-07-02T01:25:31.635Z,0.00
2023-07-02T01:26:31.618Z,0.00
2023-07-02T01:27:31.632Z,0.00
2023-07-02T01:28:31.597Z,0.00
2023-07-02T01:29:31.590Z,0.00
2023-07-02T01:30:31.584Z,0.00
2023-07-02T01:31:31.621Z,0.00
2023-07-02T01:32:31.576Z,0.00
2023-07-02T01:33:31.547Z,0.00
2023-07-02T01:34:31.537Z,0.00
2023-07-02T01:35:31.526Z,0.00
2023-07-02T01:36:31.511Z,0.00
2023-07-02T01:37:31.502Z,0.00
2023-07-02T01:38:31.500Z,0.00
2023-07-02T01:39:31.478Z,0.00
2023-07-02T01:40:31.466Z,0.00
2023-07-02T01:41:31.455Z,0.00
2023-07-02T01:42:31.443Z,0.00
2023-07-02T01:43:31.439Z,0.00
2023-07-02T01:44:31.425Z,0.00
2023-07-02T01:45:31.426Z,0.00
2023-07-02T01:46:31.454Z,0.00
2023-07-02T01:47:31.429Z,0.00
2023-07-02T01:48:31.380Z,0.00
2023-07-02T01:49:31.386Z,0.00
2023-07-02T01:50:31.358Z,0.00
2023-07-02T01:51:31.348Z,0.00
2023-07-02T01:52:31.341Z,0.00
2023-07-02T01:53:31.326Z,0.00
2023-07-02T01:54:31.376Z,0.00
2023-07-02T01:55:31.349Z,0.00
2023-07-02T01:56:31.290Z,0.00
2023-07-02T01:57:31.279Z,0.00
2023-07-02T01:58:31.266Z,0.00
2023-07-02T01:59:31.261Z,0.00
2023-07-02T02:00:31.244Z,0.00
2023-07-02T02:01:31.273Z,0.00
2023-07-02T02:02:31.309Z,0.00
2023-07-02T02:03:31.329Z,0.00
2023-07-02T02:04:31.229Z,0.00
2023-07-02T02:05:31.196Z,0.00
2023-07-02T02:06:31.179Z,0.00
2023-07-02T02:07:31.195Z,0.00
2023-07-02T02:08:31.373Z,0.00
2023-07-02T02:09:31.147Z,0.00
2023-07-02T02:10:31.133Z,4.00
2023-07-02T02:11:31.126Z,4.00
2023-07-02T02:12:31.116Z,4.00
2023-07-02T02:13:31.109Z,4.00
2023-07-02T02:14:31.092Z,0.00
2023-07-02T02:15:31.131Z,0.00
2023-07-02T02:16:31.127Z,4.00
2023-07-02T02:17:31.112Z,4.00
2023-07-02T02:18:31.055Z,4.00
2023-07-02T02:19:31.061Z,4.00
2023-07-02T02:20:31.022Z,4.00
2023-07-02T02:21:31.024Z,4.00
2023-07-02T02:22:31.003Z,8.00
2023-07-02T02:23:31.000Z,4.00
2023-07-02T02:24:30.977Z,8.00
2023-07-02T02:25:30.976Z,8.00
2023-07-02T02:26:30.995Z,12.00
2023-07-02T02:27:30.946Z,12.00
2023-07-02T02:28:30.948Z,12.00
2023-07-02T02:29:30.923Z,12.00
2023-07-02T02:30:30.908Z,16.00
2023-07-02T02:31:30.926Z,16.00
2023-07-02T02:32:30.909Z,20.00
2023-07-02T02:33:30.882Z,24.00
2023-07-02T02:34:30.866Z,24.00
2023-07-02T02:35:30.884Z,28.00
2023-07-02T02:36:30.921Z,32.00
2023-07-02T02:37:30.834Z,36.00
2023-07-02T02:38:30.830Z,44.00
2023-07-02T02:39:30.821Z,48.00
2023-07-02T02:40:30.828Z,52.00
2023-07-02T02:41:30.796Z,56.00
2023-07-02T02:42:30.781Z,60.00
2023-07-02T02:43:30.772Z,64.00
2023-07-02T02:44:30.771Z,72.00
2023-07-02T02:45:30.747Z,80.00
2023-07-02T02:46:30.860Z,88.00
2023-07-02T02:47:30.749Z,100.00
2023-07-02T02:48:30.715Z,108.00
2023-07-02T02:49:30.709Z,120.00
2023-07-02T02:50:30.701Z,132.00
2023-07-02T02:51:30.708Z,140.00
2023-07-02T02:52:30.683Z,156.00
2023-07-02T02:53:30.670Z,168.00
2023-07-02T02:54:30.683Z,184.00
2023-07-02T02:55:30.680Z,200.00
2023-07-02T02:56:30.633Z,216.00
2023-07-02T02:57:30.625Z,236.00
2023-07-02T02:58:30.617Z,252.00
2023-07-02T02:59:30.601Z,276.00
2023-07-02T03:00:30.587Z,296.00
2023-07-02T03:01:30.622Z,316.00
2023-07-02T03:02:30.601Z,340.00
2023-07-02T03:03:30.670Z,368.00
2023-07-02T03:04:30.613Z,388.00
2023-07-02T03:05:30.537Z,416.00
2023-07-02T03:06:30.528Z,444.00
2023-07-02T03:07:30.536Z,472.00
2023-07-02T03:08:30.500Z,504.00
2023-07-02T03:09:30.489Z,536.00
2023-07-02T03:10:30.492Z,568.00
2023-07-02T03:11:30.486Z,604.00
2023-07-02T03:12:30.489Z,636.00
2023-07-02T03:13:30.446Z,676.00
2023-07-02T03:14:30.438Z,720.00
2023-07-02T03:15:30.436Z,760.00
2023-07-02T03:16:30.441Z,804.00
2023-07-02T03:17:30.428Z,844.00
2023-07-02T03:18:30.397Z,884.00
2023-07-02T03:19:30.381Z,924.00
2023-07-02T03:20:30.370Z,968.00
2023-07-02T03:21:30.358Z,1016.00
2023-07-02T03:22:30.353Z,1064.00
2023-07-02T03:23:30.371Z,1116.00
2023-07-02T03:24:30.332Z,1172.00
2023-07-02T03:25:30.316Z,1228.00
2023-07-02T03:26:30.309Z,1276.00
2023-07-02T03:27:30.305Z,1320.00
2023-07-02T03:28:30.279Z,1368.00
2023-07-02T03:29:30.271Z,1420.00
2023-07-02T03:30:30.318Z,1480.00
2023-07-02T03:31:30.271Z,1540.00
2023-07-02T03:32:30.259Z,1600.00
2023-07-02T03:33:30.229Z,1664.00
2023-07-02T03:34:30.229Z,1732.00
2023-07-02T03:35:30.203Z,1796.00
2023-07-02T03:36:30.201Z,1860.00
2023-07-02T03:37:30.186Z,1924.00
2023-07-02T03:38:30.174Z,1992.00
2023-07-02T03:39:30.187Z,2052.00
2023-07-02T03:40:30.148Z,2124.00
2023-07-02T03:41:30.137Z,2188.00
2023-07-02T03:42:30.127Z,2252.00
2023-07-02T03:43:30.120Z,2328.00
2023-07-02T03:44:30.107Z,2396.00
2023-07-02T03:45:30.096Z,2464.00
2023-07-02T03:46:30.098Z,2532.00
2023-07-02T03:47:30.129Z,2604.00
2023-07-02T03:48:30.077Z,2672.00
2023-07-02T03:49:30.053Z,2744.00
2023-07-02T03:50:30.039Z,2812.00
2023-07-02T03:51:30.035Z,2876.00
2023-07-02T03:52:30.023Z,2944.00
2023-07-02T03:53:30.007Z,3016.00
2023-07-02T03:54:30.015Z,3088.00
2023-07-02T03:55:30.007Z,3164.00
2023-07-02T03:56:30.018Z,3244.00
2023-07-02T03:57:29.968Z,3320.00
2023-07-02T03:58:29.958Z,3396.00
2023-07-02T03:59:29.948Z,3476.00
2023-07-02T04:00:29.934Z,3544.00
2023-07-02T04:01:29.934Z,3612.00
2023-07-02T04:02:30.037Z,3684.00
2023-07-02T04:03:29.981Z,3764.00
2023-07-02T04:04:30.131Z,3836.00
2023-07-02T04:05:29.880Z,3908.00
2023-07-02T04:06:29.893Z,3988.00
2023-07-02T04:07:29.857Z,4052.00
2023-07-02T04:08:29.846Z,4132.00
2023-07-02T04:09:29.838Z,4208.00
2023-07-02T04:10:29.833Z,4280.00
2023-07-02T04:11:29.841Z,4348.00
2023-07-02T04:12:29.805Z,4424.00
2023-07-02T04:13:29.810Z,4500.00
2023-07-02T04:14:29.789Z,4580.00
2023-07-02T04:15:29.771Z,4668.00
2023-07-02T04:16:29.825Z,4752.00
2023-07-02T04:17:29.814Z,4836.00
2023-07-02T04:18:29.768Z,4908.00
2023-07-02T04:19:29.728Z,4988.00
2023-07-02T04:20:29.733Z,5068.00
2023-07-02T04:21:29.706Z,5272.00
2023-07-02T04:22:29.710Z,5788.00
2023-07-02T04:23:29.685Z,6040.00
2023-07-02T04:24:29.670Z,6304.00
2023-07-02T04:25:36.095Z,6560.00
2023-07-02T04:27:01.183Z,6536.00
2023-07-02T04:27:50.461Z,6964.00
2023-07-02T04:28:30.661Z,6516.00
2023-07-02T04:29:29.636Z,7088.00
2023-07-02T04:30:29.606Z,7292.00
2023-07-02T04:31:29.666Z,7436.00
2023-07-02T04:32:29.620Z,7896.00
2023-07-02T04:33:29.573Z,7728.00
2023-07-02T04:34:29.576Z,7816.00
2023-07-02T04:35:29.554Z,8076.00
2023-07-02T04:36:29.708Z,8216.00
2023-07-02T04:37:29.523Z,7532.00
2023-07-02T04:38:29.518Z,7908.00
2023-07-02T04:39:29.560Z,8360.00
2023-07-02T04:40:29.565Z,8556.00
2023-07-02T04:41:29.479Z,9032.00
2023-07-02T04:42:29.473Z,9292.00
2023-07-02T04:43:29.480Z,9292.00
2023-07-02T04:44:29.444Z,9200.00
2023-07-02T04:45:29.437Z,9836.00
2023-07-02T04:46:29.477Z,9856.00
2023-07-02T04:47:29.467Z,9684.00
2023-07-02T04:48:29.436Z,9572.00
2023-07-02T04:49:29.410Z,9792.00
2023-07-02T04:50:29.382Z,9944.00
2023-07-02T04:51:29.420Z,10280.00
2023-07-02T04:52:29.374Z,10944.00
2023-07-02T04:53:29.351Z,10756.00
2023-07-02T04:54:29.387Z,11192.00
2023-07-02T04:55:29.326Z,11328.00
2023-07-02T04:56:29.318Z,11372.00
2023-07-02T04:57:29.311Z,12124.00
2023-07-02T04:58:29.299Z,12880.00
2023-07-02T04:59:29.334Z,12164.00
2023-07-02T05:00:29.277Z,12512.00
2023-07-02T05:01:29.381Z,12412.00
2023-07-02T05:02:29.351Z,12388.00
2023-07-02T05:03:29.312Z,12916.00
2023-07-02T05:04:29.253Z,13428.00
2023-07-02T05:05:29.227Z,13348.00
2023-07-02T05:06:29.207Z,13572.00
2023-07-02T05:07:29.195Z,13804.00
2023-07-02T05:08:29.184Z,14304.00
2023-07-02T05:09:29.177Z,14880.00
2023-07-02T05:10:29.163Z,15520.00
2023-07-02T05:11:29.157Z,15808.00
2023-07-02T05:12:29.159Z,15872.00
2023-07-02T05:13:29.206Z,15904.00
2023-07-02T05:14:29.131Z,15936.00
2023-07-02T05:15:29.130Z,15840.00
2023-07-02T05:16:29.142Z,16736.00
2023-07-02T05:17:29.161Z,16320.00
2023-07-02T05:18:29.078Z,17632.00
2023-07-02T05:19:29.067Z,18016.00
2023-07-02T05:20:29.056Z,18336.00
2023-07-02T05:21:29.047Z,18496.00
2023-07-02T05:22:29.043Z,18400.00
2023-07-02T05:23:29.044Z,18816.00
2023-07-02T05:24:29.116Z,19872.00
2023-07-02T05:25:29.007Z,20320.00
2023-07-02T05:26:29.000Z,20512.00
2023-07-02T05:27:28.984Z,18976.00
2023-07-02T05:28:28.968Z,18976.00
2023-07-02T05:29:28.961Z,18208.00
2023-07-02T05:30:28.958Z,18528.00
2023-07-02T05:31:28.986Z,19264.00
2023-07-02T05:32:28.959Z,20320.00
2023-07-02T05:33:28.923Z,20672.00
2023-07-02T05:34:28.924Z,21024.00
2023-07-02T05:35:28.976Z,21216.00
2023-07-02T05:36:28.880Z,21408.00
2023-07-02T05:37:28.878Z,22080.00
2023-07-02T05:38:28.865Z,23104.00
2023-07-02T05:39:28.843Z,22848.00
2023-07-02T05:40:28.838Z,23328.00
2023-07-02T05:41:28.833Z,24416.00
2023-07-02T05:42:28.829Z,23168.00
2023-07-02T05:43:28.810Z,22624.00
2023-07-02T05:44:28.798Z,22624.00
2023-07-02T05:45:28.807Z,23712.00
2023-07-02T05:46:28.868Z,24224.00
2023-07-02T05:47:30.705Z,24160.00
2023-07-02T05:48:28.755Z,24224.00
2023-07-02T05:49:28.743Z,24288.00
2023-07-02T05:50:28.742Z,23968.00
2023-07-02T05:51:28.726Z,24224.00
2023-07-02T05:52:28.716Z,27488.00
2023-07-02T05:53:28.703Z,14184.00
2023-07-02T05:54:28.693Z,14628.00
2023-07-02T05:55:28.687Z,23552.00
2023-07-02T05:56:28.683Z,14464.00
2023-07-02T05:57:28.678Z,25248.00
2023-07-02T05:58:35.357Z,19008.00
2023-07-02T05:59:29.664Z,15808.00
2023-07-02T06:00:28.834Z,25408.00
2023-07-02T06:01:28.608Z,17792.00
2023-07-02T06:02:28.672Z,12572.00
2023-07-02T06:03:28.644Z,17536.00
2023-07-02T06:04:28.686Z,15936.00
2023-07-02T06:05:28.697Z,13280.00
2023-07-02T06:06:28.556Z,12512.00
2023-07-02T06:07:28.545Z,15256.00
2023-07-02T06:08:28.552Z,22240.00
2023-07-02T06:09:28.553Z,22848.00
2023-07-02T06:10:28.520Z,24224.00
2023-07-02T06:11:28.500Z,26560.00
2023-07-02T06:12:28.509Z,31680.00
2023-07-02T06:13:28.495Z,35360.00
2023-07-02T06:14:28.483Z,32448.00
2023-07-02T06:15:28.452Z,33024.00
2023-07-02T06:16:28.504Z,30144.00
2023-07-02T06:17:28.465Z,32608.00
2023-07-02T06:18:28.536Z,27008.00
2023-07-02T06:19:28.483Z,30656.00
2023-07-02T06:20:28.501Z,22048.00
2023-07-02T06:21:28.389Z,20640.00
2023-07-02T06:22:28.390Z,22528.00
2023-07-02T06:23:28.372Z,30048.00
2023-07-02T06:24:28.378Z,29440.00
2023-07-02T06:25:28.356Z,22976.00
2023-07-02T06:26:28.389Z,24192.00
2023-07-02T06:27:28.322Z,30976.00
2023-07-02T06:28:28.320Z,23136.00
2023-07-02T06:29:28.302Z,31328.00
2023-07-02T06:30:28.427Z,26880.00
2023-07-02T06:31:28.427Z,32224.00
2023-07-02T06:32:28.339Z,35840.00
2023-07-02T06:33:28.268Z,20672.00
2023-07-02T06:34:28.259Z,18048.00
2023-07-02T06:35:28.265Z,29920.00
2023-07-02T06:36:28.242Z,38400.00
2023-07-02T06:37:28.240Z,23040.00
2023-07-02T06:38:28.264Z,42624.00
2023-07-02T06:39:28.203Z,42464.00
2023-07-02T06:40:28.277Z,22240.00
2023-07-02T06:41:28.229Z,37120.00
2023-07-02T06:42:28.191Z,22688.00
2023-07-02T06:43:28.162Z,21856.00
2023-07-02T06:44:28.148Z,25408.00
2023-07-02T06:45:28.127Z,17856.00
2023-07-02T06:46:28.183Z,34688.00
2023-07-02T06:47:28.151Z,31520.00
2023-07-02T06:48:28.110Z,17952.00
2023-07-02T06:49:28.115Z,48800.00
2023-07-02T06:50:28.108Z,24160.00
2023-07-02T06:51:28.107Z,57440.00
2023-07-02T06:52:28.110Z,39072.00
2023-07-02T06:53:28.140Z,50688.00
2023-07-02T06:54:28.036Z,49824.00
2023-07-02T06:55:28.028Z,39680.00
2023-07-02T06:56:28.021Z,15336.00
2023-07-02T06:57:28.031Z,41024.00
2023-07-02T06:58:28.020Z,48736.00
2023-07-02T06:59:28.013Z,52128.00
2023-07-02T07:00:28.008Z,36384.00
2023-07-02T07:01:28.144Z,50208.00
2023-07-02T07:02:28.209Z,54720.00
2023-07-02T07:03:28.176Z,53440.00
2023-07-02T07:04:28.212Z,35648.00
2023-07-02T07:05:28.140Z,53280.00
2023-07-02T07:06:28.003Z,51776.00
2023-07-02T07:07:27.924Z,22592.00
2023-07-02T07:08:27.896Z,51424.00
2023-07-02T07:09:27.876Z,47168.00
2023-07-02T07:10:27.866Z,49120.00
2023-07-02T07:11:27.847Z,55680.00
2023-07-02T07:12:27.849Z,57856.00
2023-07-02T07:13:27.837Z,57984.00
2023-07-02T07:14:27.894Z,60576.00
2023-07-02T07:15:27.834Z,27840.00
2023-07-02T07:16:27.798Z,54880.00
2023-07-02T07:17:27.854Z,61152.00
2023-07-02T07:18:29.776Z,55808.00
2023-07-02T07:19:27.780Z,60928.00
2023-07-02T07:20:27.751Z,29216.00
2023-07-02T07:21:27.762Z,61728.00
2023-07-02T07:22:27.732Z,43744.00
2023-07-02T07:23:27.754Z,69120.00
2023-07-02T07:24:27.720Z,63456.00
2023-07-02T07:25:27.768Z,61344.00
2023-07-02T07:26:27.835Z,63712.00
2023-07-02T07:27:27.890Z,66016.00
2023-07-02T07:28:27.738Z,63616.00
2023-07-02T07:29:27.672Z,67904.00
2023-07-02T07:30:27.662Z,68256.00
2023-07-02T07:31:27.682Z,68000.00
2023-07-02T07:32:27.665Z,66656.00
2023-07-02T07:33:27.613Z,70624.00
2023-07-02T07:34:27.605Z,68192.00
2023-07-02T07:35:27.592Z,74432.00
2023-07-02T07:36:27.604Z,61664.00
2023-07-02T07:37:27.604Z,18784.00
2023-07-02T07:38:27.583Z,35232.00
2023-07-02T07:39:27.576Z,64096.00
2023-07-02T07:40:27.581Z,67424.00
2023-07-02T07:41:27.533Z,65888.00
2023-07-02T07:42:27.544Z,67968.00
2023-07-02T07:43:27.574Z,36864.00
2023-07-02T07:44:27.514Z,68000.00
2023-07-02T07:45:27.500Z,71072.00
2023-07-02T07:46:27.507Z,65728.00
2023-07-02T07:47:27.480Z,73248.00
2023-07-02T07:48:27.468Z,71392.00
2023-07-02T07:49:27.456Z,74592.00
2023-07-02T07:50:27.434Z,85568.00
2023-07-02T07:51:29.605Z,77312.00
2023-07-02T07:52:27.419Z,38752.00
2023-07-02T07:53:27.415Z,79392.00
2023-07-02T07:54:27.397Z,44736.00
2023-07-02T07:55:27.466Z,66240.00
2023-07-02T07:56:27.374Z,71680.00
2023-07-02T07:57:27.364Z,20128.00
2023-07-02T07:58:27.359Z,78944.00
2023-07-02T07:59:27.349Z,78048.00
2023-07-02T08:00:27.338Z,72704.00
2023-07-02T08:01:27.390Z,73728.00
2023-07-02T08:02:27.363Z,74880.00
2023-07-02T08:03:27.324Z,73920.00
2023-07-02T08:04:27.302Z,72640.00
2023-07-02T08:05:27.287Z,80096.00
2023-07-02T08:06:27.281Z,78944.00
2023-07-02T08:07:27.262Z,80896.00
2023-07-02T08:08:27.261Z,85376.00
2023-07-02T08:09:27.248Z,83328.00
2023-07-02T08:10:27.236Z,80384.00
2023-07-02T08:11:27.258Z,20384.00
2023-07-02T08:12:27.259Z,82880.00
2023-07-02T08:13:27.219Z,63424.00
2023-07-02T08:14:27.214Z,84896.00
2023-07-02T08:15:27.227Z,29824.00
2023-07-02T08:16:27.268Z,79776.00
2023-07-02T08:17:27.167Z,17568.00
2023-07-02T08:18:27.145Z,75360.00
2023-07-02T08:19:28.866Z,79296.00
2023-07-02T08:20:27.126Z,74208.00
2023-07-02T08:21:27.109Z,77984.00
2023-07-02T08:22:27.103Z,72928.00
2023-07-02T08:23:27.096Z,75424.00
2023-07-02T08:24:27.133Z,79296.00
2023-07-02T08:25:27.074Z,75936.00
2023-07-02T08:26:27.070Z,68256.00
2023-07-02T08:27:27.246Z,88192.00
2023-07-02T08:28:27.092Z,30208.00
2023-07-02T08:29:27.058Z,82336.00
2023-07-02T08:30:27.106Z,88064.00
2023-07-02T08:31:27.089Z,59200.00
2023-07-02T08:32:27.009Z,88800.00
2023-07-02T08:33:26.985Z,85152.00
2023-07-02T08:34:26.976Z,88576.00
2023-07-02T08:35:26.982Z,88672.00
2023-07-02T08:36:27.011Z,85856.00
2023-07-02T08:37:27.015Z,85120.00
2023-07-02T08:38:26.934Z,87232.00
2023-07-02T08:39:26.928Z,90176.00
2023-07-02T08:40:26.928Z,85248.00
2023-07-02T08:41:26.915Z,76768.00
2023-07-02T08:42:26.902Z,85312.00
2023-07-02T08:43:26.940Z,82656.00
2023-07-02T08:44:26.874Z,84032.00
2023-07-02T08:45:26.871Z,22624.00
2023-07-02T08:46:26.879Z,91968.00
2023-07-02T08:47:26.868Z,31456.00
2023-07-02T08:48:26.849Z,91104.00
2023-07-02T08:49:26.886Z,18016.00
2023-07-02T08:50:26.819Z,17824.00
2023-07-02T08:51:26.808Z,91776.00
2023-07-02T08:52:26.811Z,78944.00
2023-07-02T08:53:26.781Z,60960.00
2023-07-02T08:54:26.792Z,61280.00
2023-07-02T08:55:26.771Z,89248.00
2023-07-02T08:56:26.761Z,45280.00
2023-07-02T08:57:26.742Z,28256.00
2023-07-02T08:58:26.730Z,83680.00
2023-07-02T08:59:26.767Z,31872.00
2023-07-02T09:00:26.836Z,37088.00
2023-07-02T09:01:27.029Z,45120.00
2023-07-02T09:02:26.706Z,100576.00
2023-07-02T09:03:26.737Z,58080.00
2023-07-02T09:04:27.041Z,91040.00
2023-07-02T09:05:26.661Z,40448.00
2023-07-02T09:06:26.654Z,34848.00
2023-07-02T09:07:26.643Z,34944.00
2023-07-02T09:08:26.630Z,41664.00
2023-07-02T09:09:26.630Z,108768.00
2023-07-02T09:10:26.609Z,40128.00
2023-07-02T09:11:26.604Z,32672.00
2023-07-02T09:12:26.886Z,102144.00
2023-07-02T09:13:26.690Z,22944.00
2023-07-02T09:14:26.630Z,15936.00
2023-07-02T09:15:26.678Z,12408.00
2023-07-02T09:16:29.412Z,12244.00
2023-07-02T09:17:26.616Z,14776.00
2023-07-02T09:18:26.590Z,18400.00
2023-07-02T09:19:26.525Z,22560.00
2023-07-02T09:20:26.565Z,33664.00
2023-07-02T09:21:26.531Z,86272.00
2023-07-02T09:22:26.521Z,96448.00
2023-07-02T09:23:26.498Z,88416.00
2023-07-02T09:24:26.496Z,18944.00
2023-07-02T09:25:27.140Z,54368.00
2023-07-02T09:26:26.558Z,28224.00
2023-07-02T09:27:26.497Z,115680.00
2023-07-02T09:28:26.440Z,54336.00
2023-07-02T09:29:26.436Z,106176.00
2023-07-02T09:30:26.422Z,19776.00
2023-07-02T09:31:26.546Z,12016.00
2023-07-02T09:32:26.591Z,8764.00
2023-07-02T09:33:26.644Z,8020.00
2023-07-02T09:34:26.607Z,9844.00
2023-07-02T09:35:27.445Z,12884.00
2023-07-02T09:36:26.384Z,17824.00
2023-07-02T09:37:27.189Z,21728.00
2023-07-02T09:38:26.355Z,32384.00
2023-07-02T09:39:26.382Z,111232.00
2023-07-02T09:40:27.000Z,114976.00
2023-07-02T09:41:26.305Z,71520.00
2023-07-02T09:42:26.300Z,41728.00
2023-07-02T09:43:26.523Z,34784.00
2023-07-02T09:44:26.329Z,26368.00
2023-07-02T09:45:26.607Z,90912.00
2023-07-02T09:46:26.494Z,123904.00
2023-07-02T09:47:26.291Z,117120.00
2023-07-02T09:48:26.259Z,113024.00
2023-07-02T09:49:26.223Z,117184.00
2023-07-02T09:50:26.209Z,107584.00
2023-07-02T09:51:26.203Z,126336.00
2023-07-02T09:52:26.176Z,111904.00
2023-07-02T09:53:26.192Z,95552.00
2023-07-02T09:54:26.156Z,119872.00
2023-07-02T09:55:26.148Z,114464.00
2023-07-02T09:56:26.132Z,116928.00
2023-07-02T09:57:26.125Z,25568.00
2023-07-02T09:58:26.117Z,40768.00
2023-07-02T09:59:26.113Z,64864.00
2023-07-02T10:00:26.089Z,24480.00
2023-07-02T10:01:26.106Z,124928.00
2023-07-02T10:02:26.103Z,136192.00
2023-07-02T10:03:26.087Z,127584.00
2023-07-02T10:04:26.149Z,116672.00
2023-07-02T10:05:26.085Z,108128.00
2023-07-02T10:06:26.030Z,109024.00
2023-07-02T10:07:26.020Z,17888.00
2023-07-02T10:08:26.004Z,19744.00
2023-07-02T10:09:25.997Z,30464.00
2023-07-02T10:10:25.984Z,27584.00
2023-07-02T10:11:25.983Z,128736.00
2023-07-02T10:12:25.991Z,104160.00
2023-07-02T10:13:25.955Z,122720.00
2023-07-02T10:14:25.942Z,92992.00
2023-07-02T10:15:25.947Z,102368.00
2023-07-02T10:16:26.007Z,96096.00
2023-07-02T10:17:26.158Z,114944.00
2023-07-02T10:18:25.934Z,109536.00
2023-07-02T10:19:25.918Z,34592.00
2023-07-02T10:20:25.879Z,36416.00
2023-07-02T10:21:25.880Z,34112.00
2023-07-02T10:22:25.862Z,27328.00
2023-07-02T10:23:25.859Z,22144.00
2023-07-02T10:24:25.861Z,19808.00
2023-07-02T10:25:25.853Z,17984.00
2023-07-02T10:26:25.874Z,17696.00
2023-07-02T10:27:25.810Z,22336.00
2023-07-02T10:28:25.798Z,28640.00
2023-07-02T10:29:25.807Z,85312.00
2023-07-02T10:30:25.790Z,24864.00
2023-07-02T10:31:26.394Z,21792.00
2023-07-02T10:32:25.779Z,20128.00
2023-07-02T10:33:25.748Z,20320.00
2023-07-02T10:34:25.735Z,21920.00
2023-07-02T10:35:25.774Z,23712.00
2023-07-02T10:36:25.779Z,29824.00
2023-07-02T10:37:25.797Z,27648.00
2023-07-02T10:38:25.724Z,32864.00
2023-07-02T10:39:25.684Z,68000.00
2023-07-02T10:40:25.699Z,100256.00
2023-07-02T10:41:25.661Z,116928.00
2023-07-02T10:42:25.654Z,97376.00
2023-07-02T10:43:27.230Z,97024.00
2023-07-02T10:44:25.638Z,104576.00
2023-07-02T10:45:25.626Z,97088.00
2023-07-02T10:46:25.664Z,114048.00
2023-07-02T10:47:25.631Z,126464.00
2023-07-02T10:48:25.608Z,104384.00
2023-07-02T10:49:25.611Z,104832.00
2023-07-02T10:50:25.580Z,113760.00
2023-07-02T10:51:25.597Z,109344.00
2023-07-02T10:52:25.555Z,108640.00
2023-07-02T10:53:25.589Z,109952.00
2023-07-02T10:54:25.546Z,28928.00
2023-07-02T10:55:25.537Z,27296.00
2023-07-02T10:56:25.548Z,22368.00
2023-07-02T10:57:25.499Z,21664.00
2023-07-02T10:58:25.524Z,24064.00
2023-07-02T10:59:25.490Z,25888.00
2023-07-02T11:00:25.464Z,28320.00
2023-07-02T11:01:25.493Z,19936.00
2023-07-02T11:02:25.522Z,20832.00
2023-07-02T11:03:25.768Z,88032.00
2023-07-02T11:04:25.458Z,97120.00
2023-07-02T11:05:28.537Z,96320.00
2023-07-02T11:06:25.420Z,75200.00
2023-07-02T11:07:25.463Z,84320.00
2023-07-02T11:08:25.462Z,102176.00
2023-07-02T11:09:25.492Z,93824.00
2023-07-02T11:10:25.374Z,82240.00
2023-07-02T11:11:25.362Z,86784.00
2023-07-02T11:12:25.370Z,92448.00
2023-07-02T11:13:25.343Z,82176.00
2023-07-02T11:14:25.330Z,82464.00
2023-07-02T11:15:25.314Z,80864.00
2023-07-02T11:16:25.355Z,96160.00
2023-07-02T11:17:25.312Z,29952.00
2023-07-02T11:18:25.384Z,94304.00
2023-07-02T11:19:25.405Z,94688.00
2023-07-02T11:20:25.274Z,31072.00
2023-07-02T11:21:25.298Z,25408.00
2023-07-02T11:22:25.252Z,15184.00
2023-07-02T11:23:25.294Z,15208.00
2023-07-02T11:24:25.232Z,16864.00
2023-07-02T11:25:25.219Z,22976.00
2023-07-02T11:26:25.205Z,113760.00
2023-07-02T11:27:25.214Z,93248.00
2023-07-02T11:28:25.188Z,95008.00
2023-07-02T11:29:25.173Z,111520.00
2023-07-02T11:30:25.239Z,109952.00
2023-07-02T11:31:25.319Z,91552.00
2023-07-02T11:32:25.194Z,87968.00
2023-07-02T11:33:25.146Z,120992.00
2023-07-02T11:34:25.772Z,108416.00
2023-07-02T11:35:25.119Z,48256.00
2023-07-02T11:36:25.110Z,117472.00
2023-07-02T11:37:25.097Z,81472.00
2023-07-02T11:38:25.106Z,30272.00
2023-07-02T11:39:25.101Z,36032.00
2023-07-02T11:40:25.096Z,31776.00
2023-07-02T11:41:25.112Z,30976.00
2023-07-02T11:42:25.095Z,33888.00
2023-07-02T11:43:25.056Z,35808.00
2023-07-02T11:44:25.110Z,45952.00
2023-07-02T11:45:25.022Z,50496.00
2023-07-02T11:46:25.095Z,127904.00
2023-07-02T11:47:25.032Z,127328.00
2023-07-02T11:48:25.004Z,116064.00
2023-07-02T11:49:24.976Z,96864.00
2023-07-02T11:50:27.050Z,97184.00
2023-07-02T11:51:24.964Z,119456.00
2023-07-02T11:52:24.982Z,118016.00
2023-07-02T11:53:24.982Z,95872.00
2023-07-02T11:54:24.932Z,113024.00
2023-07-02T11:55:24.959Z,138752.00
2023-07-02T11:56:24.913Z,126880.00
2023-07-02T11:57:24.896Z,123488.00
2023-07-02T11:58:24.897Z,95904.00
2023-07-02T11:59:24.885Z,88672.00
2023-07-02T12:00:24.873Z,109920.00
2023-07-02T12:01:24.904Z,33472.00
2023-07-02T12:02:24.924Z,33792.00
2023-07-02T12:03:24.907Z,51392.00
2023-07-02T12:04:24.845Z,40000.00
2023-07-02T12:05:24.826Z,34656.00
2023-07-02T12:06:24.821Z,34368.00